sensor_id;sensor_type;location;lat;lon;timestamp;temperature;humidity
5850;DHT22;2951;47.712;9.400;2022-12-05T00:02:22;2.70;99.90
5850;DHT22;2951;47.712;9.400;2022-12-05T00:04:49;2.70;99.90
5850;DHT22;2951;47.712;9.400;2022-12-05T00:07:16;2.80;99.90
5850;DHT22;2951;47.712;9.400;2022-12-05T00:09:42;2.90;99.90
5850;DHT22;2951;47.712;9.400;2022-12-05T00:12:09;2.80;99.90
5850;DHT22;2951;47.712;9.400;2022-12-05T00:14:37;2.80;99.90
5850;DHT22;2951;47.712;9.400;2022-12-05T00:17:04;2.80;99.90
5850;DHT22;2951;47.712;9.400;2022-12-05T00:19:31;2.80;99.90
5850;DHT22;2951;47.712;9.400;2022-12-05T00:21:57;2.80;99.90
5850;DHT22;2951;47.712;9.400;2022-12-05T00:24:24;2.80;99.90
5850;DHT22;2951;47.712;9.400;2022-12-05T00:26:51;2.80;99.90
5850;DHT22;2951;47.712;9.400;2022-12-05T00:29:18;2.80;99.90
5850;DHT22;2951;47.712;9.400;2022-12-05T00:31:44;2.80;99.90
5850;DHT22;2951;47.712;9.400;2022-12-05T00:34:11;2.70;99.90
5850;DHT22;2951;47.712;9.400;2022-12-05T00:36:38;2.70;99.90
5850;DHT22;2951;47.712;9.400;2022-12-05T00:39:06;2.70;99.90
5850;DHT22;2951;47.712;9.400;2022-12-05T00:41:33;2.70;99.90
5850;DHT22;2951;47.712;9.400;2022-12-05T00:44:00;2.60;99.90
5850;DHT22;2951;47.712;9.400;2022-12-05T00:46:27;2.70;99.90
5850;DHT22;2951;47.712;9.400;2022-12-05T00:48:55;2.60;99.90
5850;DHT22;2951;47.712;9.400;2022-12-05T00:51:23;2.70;99.90
5850;DHT22;2951;47.712;9.400;2022-12-05T00:53:49;2.70;99.90
5850;DHT22;2951;47.712;9.400;2022-12-05T00:56:19;2.70;99.90
5850;DHT22;2951;47.712;9.400;2022-12-05T00:58:46;2.70;99.90
5850;DHT22;2951;47.712;9.400;2022-12-05T01:01:18;2.70;99.90
5850;DHT22;2951;47.712;9.400;2022-12-05T01:03:45;2.70;99.90
5850;DHT22;2951;47.712;9.400;2022-12-05T01:06:12;2.70;99.90
5850;DHT22;2951;47.712;9.400;2022-12-05T01:08:40;2.70;99.90
5850;DHT22;2951;47.712;9.400;2022-12-05T01:11:07;2.70;99.90
5850;DHT22;2951;47.712;9.400;2022-12-05T01:13:34;2.80;99.90
5850;DHT22;2951;47.712;9.400;2022-12-05T01:16:01;2.80;99.90
5850;DHT22;2951;47.712;9.400;2022-12-05T01:18:28;2.80;99.90
5850;DHT22;2951;47.712;9.400;2022-12-05T01:20:55;2.80;99.90
5850;DHT22;2951;47.712;9.400;2022-12-05T01:23:22;2.80;99.90
5850;DHT22;2951;47.712;9.400;2022-12-05T01:25:50;2.80;99.90
5850;DHT22;2951;47.712;9.400;2022-12-05T01:28:17;2.80;99.90
5850;DHT22;2951;47.712;9.400;2022-12-05T01:30:45;2.80;99.90
5850;DHT22;2951;47.712;9.400;2022-12-05T01:33:12;2.70;99.90
5850;DHT22;2951;47.712;9.400;2022-12-05T01:35:39;2.80;99.90
5850;DHT22;2951;47.712;9.400;2022-12-05T01:38:06;2.80;99.90
5850;DHT22;2951;47.712;9.400;2022-12-05T01:40:33;2.80;99.90
5850;DHT22;2951;47.712;9.400;2022-12-05T01:43:01;2.80;99.90
5850;DHT22;2951;47.712;9.400;2022-12-05T01:45:35;2.80;99.90
5850;DHT22;2951;47.712;9.400;2022-12-05T01:48:04;2.90;99.90
5850;DHT22;2951;47.712;9.400;2022-12-05T01:50:32;2.90;99.90
5850;DHT22;2951;47.712;9.400;2022-12-05T01:52:58;3.00;99.90
5850;DHT22;2951;47.712;9.400;2022-12-05T01:55:25;3.00;99.90
5850;DHT22;2951;47.712;9.400;2022-12-05T01:57:52;3.00;99.90
5850;DHT22;2951;47.712;9.400;2022-12-05T02:00:19;3.00;99.90
5850;DHT22;2951;47.712;9.400;2022-12-05T02:02:51;3.00;99.90
5850;DHT22;2951;47.712;9.400;2022-12-05T02:05:24;3.10;99.90
5850;DHT22;2951;47.712;9.400;2022-12-05T02:07:52;3.10;99.90
5850;DHT22;2951;47.712;9.400;2022-12-05T02:10:19;3.10;99.90
5850;DHT22;2951;47.712;9.400;2022-12-05T02:12:46;3.10;99.90
5850;DHT22;2951;47.712;9.400;2022-12-05T02:20:32;3.20;99.90
5850;DHT22;2951;47.712;9.400;2022-12-05T02:23:06;3.20;99.90
5850;DHT22;2951;47.712;9.400;2022-12-05T02:25:38;3.20;99.90
5850;DHT22;2951;47.712;9.400;2022-12-05T02:30:41;3.10;99.90
5850;DHT22;2951;47.712;9.400;2022-12-05T02:33:22;3.10;99.90
5850;DHT22;2951;47.712;9.400;2022-12-05T02:35:56;3.10;99.90
5850;DHT22;2951;47.712;9.400;2022-12-05T02:38:28;3.10;99.90
5850;DHT22;2951;47.712;9.400;2022-12-05T02:45:59;3.20;99.90
5850;DHT22;2951;47.712;9.400;2022-12-05T02:48:28;3.20;99.90
5850;DHT22;2951;47.712;9.400;2022-12-05T02:50:56;3.30;99.90
5850;DHT22;2951;47.712;9.400;2022-12-05T02:53:24;3.30;99.90
5850;DHT22;2951;47.712;9.400;2022-12-05T02:55:51;3.20;99.90
5850;DHT22;2951;47.712;9.400;2022-12-05T02:58:23;3.20;99.90
5850;DHT22;2951;47.712;9.400;2022-12-05T03:00:52;3.20;99.90
5850;DHT22;2951;47.712;9.400;2022-12-05T03:03:19;3.20;99.90
5850;DHT22;2951;47.712;9.400;2022-12-05T03:05:54;3.20;99.90
5850;DHT22;2951;47.712;9.400;2022-12-05T03:08:23;3.30;99.90
5850;DHT22;2951;47.712;9.400;2022-12-05T03:10:51;3.30;99.90
5850;DHT22;2951;47.712;9.400;2022-12-05T03:13:20;3.40;99.90
5850;DHT22;2951;47.712;9.400;2022-12-05T03:15:51;3.40;99.90
5850;DHT22;2951;47.712;9.400;2022-12-05T03:18:23;3.40;99.90
5850;DHT22;2951;47.712;9.400;2022-12-05T03:21:01;3.30;99.90
5850;DHT22;2951;47.712;9.400;2022-12-05T03:23:49;3.40;99.90
5850;DHT22;2951;47.712;9.400;2022-12-05T03:29:03;3.50;99.90
5850;DHT22;2951;47.712;9.400;2022-12-05T03:31:37;3.50;99.90
5850;DHT22;2951;47.712;9.400;2022-12-05T03:34:06;3.50;99.90
5850;DHT22;2951;47.712;9.400;2022-12-05T03:36:37;3.50;99.90
5850;DHT22;2951;47.712;9.400;2022-12-05T03:39:09;3.50;99.90
5850;DHT22;2951;47.712;9.400;2022-12-05T03:41:43;3.60;99.90
5850;DHT22;2951;47.712;9.400;2022-12-05T03:44:12;3.60;99.90
5850;DHT22;2951;47.712;9.400;2022-12-05T03:46:45;3.60;99.90
5850;DHT22;2951;47.712;9.400;2022-12-05T03:49:23;3.50;99.90
5850;DHT22;2951;47.712;9.400;2022-12-05T03:52:02;3.60;99.90
5850;DHT22;2951;47.712;9.400;2022-12-05T03:54:33;3.60;99.90
5850;DHT22;2951;47.712;9.400;2022-12-05T03:57:23;3.60;99.90
5850;DHT22;2951;47.712;9.400;2022-12-05T03:59:53;3.60;99.90
5850;DHT22;2951;47.712;9.400;2022-12-05T04:02:33;3.60;99.90
5850;DHT22;2951;47.712;9.400;2022-12-05T04:05:09;3.50;99.90
5850;DHT22;2951;47.712;9.400;2022-12-05T04:07:38;3.50;99.90
5850;DHT22;2951;47.712;9.400;2022-12-05T04:10:11;3.60;99.90
5850;DHT22;2951;47.712;9.400;2022-12-05T04:12:40;3.60;99.90
5850;DHT22;2951;47.712;9.400;2022-12-05T04:15:09;3.70;99.90
5850;DHT22;2951;47.712;9.400;2022-12-05T04:17:45;3.60;99.90
5850;DHT22;2951;47.712;9.400;2022-12-05T04:23:04;3.60;99.90
5850;DHT22;2951;47.712;9.400;2022-12-05T04:25:50;3.50;99.90
5850;DHT22;2951;47.712;9.400;2022-12-05T04:28:27;3.50;99.90
5850;DHT22;2951;47.712;9.400;2022-12-05T04:31:08;3.40;99.90
5850;DHT22;2951;47.712;9.400;2022-12-05T04:33:41;3.30;99.90
5850;DHT22;2951;47.712;9.400;2022-12-05T04:36:18;3.30;99.90
5850;DHT22;2951;47.712;9.400;2022-12-05T04:38:47;3.30;99.90
5850;DHT22;2951;47.712;9.400;2022-12-05T04:41:25;3.30;99.90
5850;DHT22;2951;47.712;9.400;2022-12-05T04:43:54;3.30;99.90
5850;DHT22;2951;47.712;9.400;2022-12-05T04:46:22;3.30;99.90
5850;DHT22;2951;47.712;9.400;2022-12-05T04:48:51;3.30;99.90
5850;DHT22;2951;47.712;9.400;2022-12-05T04:51:21;3.10;99.90
5850;DHT22;2951;47.712;9.400;2022-12-05T04:53:51;3.10;99.90
5850;DHT22;2951;47.712;9.400;2022-12-05T04:56:19;3.10;99.90
5850;DHT22;2951;47.712;9.400;2022-12-05T04:58:47;3.20;99.90
5850;DHT22;2951;47.712;9.400;2022-12-05T05:01:17;3.10;99.90
5850;DHT22;2951;47.712;9.400;2022-12-05T05:06:47;3.20;99.90
5850;DHT22;2951;47.712;9.400;2022-12-05T05:09:14;3.20;99.90
5850;DHT22;2951;47.712;9.400;2022-12-05T05:11:41;3.10;99.90
5850;DHT22;2951;47.712;9.400;2022-12-05T05:14:08;3.20;99.90
5850;DHT22;2951;47.712;9.400;2022-12-05T05:16:36;3.30;99.90
5850;DHT22;2951;47.712;9.400;2022-12-05T05:19:03;3.30;99.90
5850;DHT22;2951;47.712;9.400;2022-12-05T05:21:34;3.30;99.90
5850;DHT22;2951;47.712;9.400;2022-12-05T05:24:01;3.40;99.90
5850;DHT22;2951;47.712;9.400;2022-12-05T05:26:29;3.40;99.90
5850;DHT22;2951;47.712;9.400;2022-12-05T05:28:56;3.50;99.90
5850;DHT22;2951;47.712;9.400;2022-12-05T05:31:23;3.50;99.90
5850;DHT22;2951;47.712;9.400;2022-12-05T05:33:51;3.50;99.90
5850;DHT22;2951;47.712;9.400;2022-12-05T05:36:19;3.50;99.90
5850;DHT22;2951;47.712;9.400;2022-12-05T05:38:47;3.50;99.90
5850;DHT22;2951;47.712;9.400;2022-12-05T05:41:15;3.50;99.90
5850;DHT22;2951;47.712;9.400;2022-12-05T05:43:42;3.50;99.90
5850;DHT22;2951;47.712;9.400;2022-12-05T05:46:09;3.50;99.90
5850;DHT22;2951;47.712;9.400;2022-12-05T05:48:36;3.60;99.90
5850;DHT22;2951;47.712;9.400;2022-12-05T05:51:03;3.60;99.90
5850;DHT22;2951;47.712;9.400;2022-12-05T05:53:30;3.70;99.90
5850;DHT22;2951;47.712;9.400;2022-12-05T05:56:00;3.70;99.90
5850;DHT22;2951;47.712;9.400;2022-12-05T05:58:27;3.70;99.90
5850;DHT22;2951;47.712;9.400;2022-12-05T06:00:54;3.70;99.90
5850;DHT22;2951;47.712;9.400;2022-12-05T06:03:20;3.80;99.90
5850;DHT22;2951;47.712;9.400;2022-12-05T06:05:55;3.80;99.90
5850;DHT22;2951;47.712;9.400;2022-12-05T06:08:22;3.80;99.90
5850;DHT22;2951;47.712;9.400;2022-12-05T06:10:49;3.80;99.90
5850;DHT22;2951;47.712;9.400;2022-12-05T06:13:15;3.90;99.90
5850;DHT22;2951;47.712;9.400;2022-12-05T06:15:42;3.80;99.90
5850;DHT22;2951;47.712;9.400;2022-12-05T06:18:08;3.80;99.90
5850;DHT22;2951;47.712;9.400;2022-12-05T06:20:35;3.70;99.90
5850;DHT22;2951;47.712;9.400;2022-12-05T06:23:02;3.70;99.90
5850;DHT22;2951;47.712;9.400;2022-12-05T06:25:28;3.60;99.90
5850;DHT22;2951;47.712;9.400;2022-12-05T06:27:55;3.60;99.90
5850;DHT22;2951;47.712;9.400;2022-12-05T06:30:22;3.60;99.90
5850;DHT22;2951;47.712;9.400;2022-12-05T06:32:49;3.60;99.90
5850;DHT22;2951;47.712;9.400;2022-12-05T06:35:15;3.50;99.90
5850;DHT22;2951;47.712;9.400;2022-12-05T06:37:42;3.50;99.90
5850;DHT22;2951;47.712;9.400;2022-12-05T06:40:10;3.40;99.90
5850;DHT22;2951;47.712;9.400;2022-12-05T06:42:37;3.40;99.90
5850;DHT22;2951;47.712;9.400;2022-12-05T06:45:04;3.50;99.90
5850;DHT22;2951;47.712;9.400;2022-12-05T06:47:31;3.50;99.90
5850;DHT22;2951;47.712;9.400;2022-12-05T06:49:58;3.60;99.90
5850;DHT22;2951;47.712;9.400;2022-12-05T06:52:25;3.60;99.90
5850;DHT22;2951;47.712;9.400;2022-12-05T06:54:51;3.70;99.90
5850;DHT22;2951;47.712;9.400;2022-12-05T06:57:18;3.80;99.90
5850;DHT22;2951;47.712;9.400;2022-12-05T06:59:45;3.80;99.90
5850;DHT22;2951;47.712;9.400;2022-12-05T07:02:11;3.70;99.90
5850;DHT22;2951;47.712;9.400;2022-12-05T07:04:38;3.70;99.90
5850;DHT22;2951;47.712;9.400;2022-12-05T07:07:05;3.70;99.90
5850;DHT22;2951;47.712;9.400;2022-12-05T07:09:32;3.60;99.90
5850;DHT22;2951;47.712;9.400;2022-12-05T07:12:17;3.60;99.90
5850;DHT22;2951;47.712;9.400;2022-12-05T07:14:44;3.60;99.90
5850;DHT22;2951;47.712;9.400;2022-12-05T07:17:13;3.70;99.90
5850;DHT22;2951;47.712;9.400;2022-12-05T07:19:40;3.60;99.90
5850;DHT22;2951;47.712;9.400;2022-12-05T07:22:07;3.50;99.90
5850;DHT22;2951;47.712;9.400;2022-12-05T07:24:40;3.50;99.90
5850;DHT22;2951;47.712;9.400;2022-12-05T07:27:07;3.50;99.90
5850;DHT22;2951;47.712;9.400;2022-12-05T07:29:34;3.50;99.90
5850;DHT22;2951;47.712;9.400;2022-12-05T07:32:00;3.50;99.90
5850;DHT22;2951;47.712;9.400;2022-12-05T07:34:27;3.60;99.90
5850;DHT22;2951;47.712;9.400;2022-12-05T07:36:54;3.60;99.90
5850;DHT22;2951;47.712;9.400;2022-12-05T07:39:21;3.60;99.90
5850;DHT22;2951;47.712;9.400;2022-12-05T07:41:47;3.60;99.90
5850;DHT22;2951;47.712;9.400;2022-12-05T07:44:14;3.70;99.90
5850;DHT22;2951;47.712;9.400;2022-12-05T07:46:41;3.80;99.90
5850;DHT22;2951;47.712;9.400;2022-12-05T07:49:07;3.90;99.90
5850;DHT22;2951;47.712;9.400;2022-12-05T07:51:34;4.00;99.90
5850;DHT22;2951;47.712;9.400;2022-12-05T07:54:01;4.10;99.90
5850;DHT22;2951;47.712;9.400;2022-12-05T07:56:28;4.20;99.90
5850;DHT22;2951;47.712;9.400;2022-12-05T07:58:55;4.20;99.90
5850;DHT22;2951;47.712;9.400;2022-12-05T08:01:26;4.30;99.90
5850;DHT22;2951;47.712;9.400;2022-12-05T08:03:54;4.30;99.90
5850;DHT22;2951;47.712;9.400;2022-12-05T08:06:23;4.20;99.90
5850;DHT22;2951;47.712;9.400;2022-12-05T08:08:50;4.20;99.90
5850;DHT22;2951;47.712;9.400;2022-12-05T08:11:18;4.30;99.90
5850;DHT22;2951;47.712;9.400;2022-12-05T08:13:46;4.20;99.90
5850;DHT22;2951;47.712;9.400;2022-12-05T08:16:13;4.30;99.90
5850;DHT22;2951;47.712;9.400;2022-12-05T08:18:41;4.40;99.90
5850;DHT22;2951;47.712;9.400;2022-12-05T08:21:09;4.50;99.90
5850;DHT22;2951;47.712;9.400;2022-12-05T08:23:36;4.50;99.90
5850;DHT22;2951;47.712;9.400;2022-12-05T08:26:11;4.60;99.90
5850;DHT22;2951;47.712;9.400;2022-12-05T08:28:38;4.70;99.90
5850;DHT22;2951;47.712;9.400;2022-12-05T08:31:09;4.70;99.90
5850;DHT22;2951;47.712;9.400;2022-12-05T08:33:36;4.80;99.90
5850;DHT22;2951;47.712;9.400;2022-12-05T08:36:04;4.90;99.90
5850;DHT22;2951;47.712;9.400;2022-12-05T08:38:31;4.90;99.90
5850;DHT22;2951;47.712;9.400;2022-12-05T08:41:01;4.90;99.90
5850;DHT22;2951;47.712;9.400;2022-12-05T08:43:28;5.00;99.90
5850;DHT22;2951;47.712;9.400;2022-12-05T08:45:55;5.00;99.90
5850;DHT22;2951;47.712;9.400;2022-12-05T08:48:22;5.00;99.90
5850;DHT22;2951;47.712;9.400;2022-12-05T08:50:54;4.90;99.90
5850;DHT22;2951;47.712;9.400;2022-12-05T08:53:21;5.00;99.90
5850;DHT22;2951;47.712;9.400;2022-12-05T08:55:47;5.00;99.90
5850;DHT22;2951;47.712;9.400;2022-12-05T08:58:14;5.10;99.90
5850;DHT22;2951;47.712;9.400;2022-12-05T09:00:41;5.10;99.90
5850;DHT22;2951;47.712;9.400;2022-12-05T09:03:08;5.10;99.90
5850;DHT22;2951;47.712;9.400;2022-12-05T09:05:35;5.20;99.90
5850;DHT22;2951;47.712;9.400;2022-12-05T09:08:01;5.30;99.90
5850;DHT22;2951;47.712;9.400;2022-12-05T09:10:29;5.30;99.90
5850;DHT22;2951;47.712;9.400;2022-12-05T09:12:56;5.30;99.90
5850;DHT22;2951;47.712;9.400;2022-12-05T09:15:22;5.40;99.90
5850;DHT22;2951;47.712;9.400;2022-12-05T09:17:49;5.40;99.90
5850;DHT22;2951;47.712;9.400;2022-12-05T09:20:17;5.40;99.90
5850;DHT22;2951;47.712;9.400;2022-12-05T09:22:43;5.30;99.90
5850;DHT22;2951;47.712;9.400;2022-12-05T09:25:10;5.20;99.90
5850;DHT22;2951;47.712;9.400;2022-12-05T09:27:37;5.20;99.90
5850;DHT22;2951;47.712;9.400;2022-12-05T09:30:04;5.20;99.90
5850;DHT22;2951;47.712;9.400;2022-12-05T09:32:31;5.30;99.90
5850;DHT22;2951;47.712;9.400;2022-12-05T09:34:58;5.30;99.90
5850;DHT22;2951;47.712;9.400;2022-12-05T09:37:25;5.40;99.90
5850;DHT22;2951;47.712;9.400;2022-12-05T09:40:06;5.30;99.90
5850;DHT22;2951;47.712;9.400;2022-12-05T09:42:48;5.40;99.90
5850;DHT22;2951;47.712;9.400;2022-12-05T09:45:29;5.50;99.90
5850;DHT22;2951;47.712;9.400;2022-12-05T09:50:42;5.50;99.90
5850;DHT22;2951;47.712;9.400;2022-12-05T09:53:29;5.50;99.90
5850;DHT22;2951;47.712;9.400;2022-12-05T09:58:38;5.40;99.90
5850;DHT22;2951;47.712;9.400;2022-12-05T10:03:42;5.50;99.90
5850;DHT22;2951;47.712;9.400;2022-12-05T10:06:16;5.60;99.90
5850;DHT22;2951;47.712;9.400;2022-12-05T10:11:17;5.50;99.90
5850;DHT22;2951;47.712;9.400;2022-12-05T10:16:33;5.50;99.90
5850;DHT22;2951;47.712;9.400;2022-12-05T10:19:14;5.40;99.90
5850;DHT22;2951;47.712;9.400;2022-12-05T10:22:27;5.30;99.90
5850;DHT22;2951;47.712;9.400;2022-12-05T10:24:40;5.40;99.90
5850;DHT22;2951;47.712;9.400;2022-12-05T10:27:10;5.40;99.90
5850;DHT22;2951;47.712;9.400;2022-12-05T10:29:45;5.40;99.90
5850;DHT22;2951;47.712;9.400;2022-12-05T10:32:18;5.40;99.90
5850;DHT22;2951;47.712;9.400;2022-12-05T10:34:47;5.40;99.90
5850;DHT22;2951;47.712;9.400;2022-12-05T10:39:42;5.60;99.90
5850;DHT22;2951;47.712;9.400;2022-12-05T10:42:15;5.60;99.90
5850;DHT22;2951;47.712;9.400;2022-12-05T10:44:42;5.70;99.90
5850;DHT22;2951;47.712;9.400;2022-12-05T10:47:09;5.70;99.90
5850;DHT22;2951;47.712;9.400;2022-12-05T10:49:37;5.70;99.90
5850;DHT22;2951;47.712;9.400;2022-12-05T10:52:04;5.70;99.90
5850;DHT22;2951;47.712;9.400;2022-12-05T10:54:41;5.70;99.90
5850;DHT22;2951;47.712;9.400;2022-12-05T10:57:27;5.60;99.90
5850;DHT22;2951;47.712;9.400;2022-12-05T10:59:55;5.60;99.90
5850;DHT22;2951;47.712;9.400;2022-12-05T11:02:24;5.70;99.90
5850;DHT22;2951;47.712;9.400;2022-12-05T11:04:52;5.60;99.90
5850;DHT22;2951;47.712;9.400;2022-12-05T11:09:52;5.70;99.90
5850;DHT22;2951;47.712;9.400;2022-12-05T11:12:20;5.70;99.90
5850;DHT22;2951;47.712;9.400;2022-12-05T11:17:24;5.80;99.90
5850;DHT22;2951;47.712;9.400;2022-12-05T11:19:51;5.80;99.90
5850;DHT22;2951;47.712;9.400;2022-12-05T11:22:18;5.90;99.90
5850;DHT22;2951;47.712;9.400;2022-12-05T11:24:45;5.80;99.90
5850;DHT22;2951;47.712;9.400;2022-12-05T11:29:41;5.80;99.90
5850;DHT22;2951;47.712;9.400;2022-12-05T11:32:21;5.80;99.90
5850;DHT22;2951;47.712;9.400;2022-12-05T11:37:32;5.80;99.90
5850;DHT22;2951;47.712;9.400;2022-12-05T11:40:00;5.70;99.90
5850;DHT22;2951;47.712;9.400;2022-12-05T11:42:40;5.80;99.90
5850;DHT22;2951;47.712;9.400;2022-12-05T11:45:11;5.80;99.90
5850;DHT22;2951;47.712;9.400;2022-12-05T11:55:59;6.10;99.90
5850;DHT22;2951;47.712;9.400;2022-12-05T11:58:52;6.10;99.90
5850;DHT22;2951;47.712;9.400;2022-12-05T12:14:06;5.90;99.90
5850;DHT22;2951;47.712;9.400;2022-12-05T12:27:04;5.80;99.90
5850;DHT22;2951;47.712;9.400;2022-12-05T12:32:15;5.80;99.90
5850;DHT22;2951;47.712;9.400;2022-12-05T12:45:30;5.70;99.90
5850;DHT22;2951;47.712;9.400;2022-12-05T12:50:32;5.70;99.90
5850;DHT22;2951;47.712;9.400;2022-12-05T12:56:01;5.80;99.90
5850;DHT22;2951;47.712;9.400;2022-12-05T13:01:14;5.80;99.90
5850;DHT22;2951;47.712;9.400;2022-12-05T13:03:50;5.70;99.90
5850;DHT22;2951;47.712;9.400;2022-12-05T13:11:11;5.80;99.90
5850;DHT22;2951;47.712;9.400;2022-12-05T13:13:42;5.80;99.90
5850;DHT22;2951;47.712;9.400;2022-12-05T13:16:11;5.90;99.90
5850;DHT22;2951;47.712;9.400;2022-12-05T13:18:39;5.80;99.90
5850;DHT22;2951;47.712;9.400;2022-12-05T13:21:07;5.80;99.90
5850;DHT22;2951;47.712;9.400;2022-12-05T13:23:35;5.80;99.90
5850;DHT22;2951;47.712;9.400;2022-12-05T13:26:07;5.80;99.90
5850;DHT22;2951;47.712;9.400;2022-12-05T13:28:36;5.80;99.90
5850;DHT22;2951;47.712;9.400;2022-12-05T13:31:08;5.90;99.90
5850;DHT22;2951;47.712;9.400;2022-12-05T13:36:08;5.80;99.90
5850;DHT22;2951;47.712;9.400;2022-12-05T13:39:27;5.70;99.90
5850;DHT22;2951;47.712;9.400;2022-12-05T13:42:13;5.60;99.90
5850;DHT22;2951;47.712;9.400;2022-12-05T13:44:49;5.50;99.90
5850;DHT22;2951;47.712;9.400;2022-12-05T13:47:28;5.50;99.90
5850;DHT22;2951;47.712;9.400;2022-12-05T13:52:30;5.60;99.90
5850;DHT22;2951;47.712;9.400;2022-12-05T13:55:01;5.60;99.90
5850;DHT22;2951;47.712;9.400;2022-12-05T14:12:43;5.50;99.90
5850;DHT22;2951;47.712;9.400;2022-12-05T14:15:30;5.50;99.90
5850;DHT22;2951;47.712;9.400;2022-12-05T14:20:47;5.70;99.90
5850;DHT22;2951;47.712;9.400;2022-12-05T14:31:42;5.80;99.90
5850;DHT22;2951;47.712;9.400;2022-12-05T14:37:00;5.80;99.90
5850;DHT22;2951;47.712;9.400;2022-12-05T14:42:17;5.60;99.90
5850;DHT22;2951;47.712;9.400;2022-12-05T14:44:46;5.60;99.90
5850;DHT22;2951;47.712;9.400;2022-12-05T14:47:16;5.60;99.90
5850;DHT22;2951;47.712;9.400;2022-12-05T14:52:21;5.60;99.90
5850;DHT22;2951;47.712;9.400;2022-12-05T14:54:51;5.60;99.90
5850;DHT22;2951;47.712;9.400;2022-12-05T14:57:19;5.60;99.90
5850;DHT22;2951;47.712;9.400;2022-12-05T14:59:50;5.50;99.90
5850;DHT22;2951;47.712;9.400;2022-12-05T15:02:22;5.40;99.90
5850;DHT22;2951;47.712;9.400;2022-12-05T15:05:01;5.30;99.90
5850;DHT22;2951;47.712;9.400;2022-12-05T15:07:37;5.30;99.90
5850;DHT22;2951;47.712;9.400;2022-12-05T15:12:53;5.20;99.90
5850;DHT22;2951;47.712;9.400;2022-12-05T15:18:22;5.10;99.90
5850;DHT22;2951;47.712;9.400;2022-12-05T15:26:02;4.80;99.90
5850;DHT22;2951;47.712;9.400;2022-12-05T15:31:28;4.70;99.90
5850;DHT22;2951;47.712;9.400;2022-12-05T15:33:56;4.70;99.90
5850;DHT22;2951;47.712;9.400;2022-12-05T15:36:24;4.60;99.90
5850;DHT22;2951;47.712;9.400;2022-12-05T15:38:54;4.60;99.90
5850;DHT22;2951;47.712;9.400;2022-12-05T15:41:20;4.50;99.90
5850;DHT22;2951;47.712;9.400;2022-12-05T15:43:54;4.50;99.90
5850;DHT22;2951;47.712;9.400;2022-12-05T15:46:24;4.40;99.90
5850;DHT22;2951;47.712;9.400;2022-12-05T15:48:54;4.40;99.90
5850;DHT22;2951;47.712;9.400;2022-12-05T15:51:22;4.30;99.90
5850;DHT22;2951;47.712;9.400;2022-12-05T15:53:56;4.20;99.90
5850;DHT22;2951;47.712;9.400;2022-12-05T15:56:29;4.20;99.90
5850;DHT22;2951;47.712;9.400;2022-12-05T16:01:25;4.10;99.90
5850;DHT22;2951;47.712;9.400;2022-12-05T16:06:21;4.00;99.90
5850;DHT22;2951;47.712;9.400;2022-12-05T16:08:50;3.90;99.90
5850;DHT22;2951;47.712;9.400;2022-12-05T16:11:17;3.90;99.90
5850;DHT22;2951;47.712;9.400;2022-12-05T16:13:45;3.90;99.90
5850;DHT22;2951;47.712;9.400;2022-12-05T16:16:18;3.90;99.90
5850;DHT22;2951;47.712;9.400;2022-12-05T16:18:51;3.80;99.90
5850;DHT22;2951;47.712;9.400;2022-12-05T16:26:37;3.60;99.90
5850;DHT22;2951;47.712;9.400;2022-12-05T16:29:05;3.60;99.90
5850;DHT22;2951;47.712;9.400;2022-12-05T16:31:32;3.60;99.90
5850;DHT22;2951;47.712;9.400;2022-12-05T16:34:06;3.60;99.90
5850;DHT22;2951;47.712;9.400;2022-12-05T16:36:33;3.70;99.90
5850;DHT22;2951;47.712;9.400;2022-12-05T16:39:01;3.70;99.90
5850;DHT22;2951;47.712;9.400;2022-12-05T16:41:32;3.70;99.90
5850;DHT22;2951;47.712;9.400;2022-12-05T16:43:58;3.70;99.90
5850;DHT22;2951;47.712;9.400;2022-12-05T16:51:39;3.90;99.90
5850;DHT22;2951;47.712;9.400;2022-12-05T16:54:06;3.80;99.90
5850;DHT22;2951;47.712;9.400;2022-12-05T16:56:33;3.70;99.90
5850;DHT22;2951;47.712;9.400;2022-12-05T16:59:06;3.70;99.90
5850;DHT22;2951;47.712;9.400;2022-12-05T17:01:35;3.70;99.90
5850;DHT22;2951;47.712;9.400;2022-12-05T17:04:04;3.70;99.90
5850;DHT22;2951;47.712;9.400;2022-12-05T17:06:31;3.70;99.90
5850;DHT22;2951;47.712;9.400;2022-12-05T17:08:58;3.70;99.90
5850;DHT22;2951;47.712;9.400;2022-12-05T17:11:26;3.80;99.90
5850;DHT22;2951;47.712;9.400;2022-12-05T17:13:53;3.80;99.90
5850;DHT22;2951;47.712;9.400;2022-12-05T17:16:21;3.70;99.90
5850;DHT22;2951;47.712;9.400;2022-12-05T17:18:48;3.70;99.90
5850;DHT22;2951;47.712;9.400;2022-12-05T17:21:15;3.60;99.90
5850;DHT22;2951;47.712;9.400;2022-12-05T17:23:43;3.70;99.90
5850;DHT22;2951;47.712;9.400;2022-12-05T17:26:13;3.70;99.90
5850;DHT22;2951;47.712;9.400;2022-12-05T17:28:41;3.70;99.90
5850;DHT22;2951;47.712;9.400;2022-12-05T17:31:28;3.70;99.90
5850;DHT22;2951;47.712;9.400;2022-12-05T17:33:54;3.70;99.90
5850;DHT22;2951;47.712;9.400;2022-12-05T17:36:21;3.60;99.90
5850;DHT22;2951;47.712;9.400;2022-12-05T17:38:48;3.60;99.90
5850;DHT22;2951;47.712;9.400;2022-12-05T17:41:15;3.60;99.90
5850;DHT22;2951;47.712;9.400;2022-12-05T17:43:43;3.50;99.90
5850;DHT22;2951;47.712;9.400;2022-12-05T17:46:14;3.50;99.90
5850;DHT22;2951;47.712;9.400;2022-12-05T17:48:42;3.60;99.90
5850;DHT22;2951;47.712;9.400;2022-12-05T17:51:08;3.60;99.90
5850;DHT22;2951;47.712;9.400;2022-12-05T17:53:36;3.50;99.90
5850;DHT22;2951;47.712;9.400;2022-12-05T17:56:04;3.60;99.90
5850;DHT22;2951;47.712;9.400;2022-12-05T17:58:31;3.50;99.90
5850;DHT22;2951;47.712;9.400;2022-12-05T18:00:58;3.50;99.90
5850;DHT22;2951;47.712;9.400;2022-12-05T18:03:25;3.50;99.90
5850;DHT22;2951;47.712;9.400;2022-12-05T18:05:52;3.50;99.90
5850;DHT22;2951;47.712;9.400;2022-12-05T18:08:19;3.50;99.90
5850;DHT22;2951;47.712;9.400;2022-12-05T18:10:46;3.60;99.90
5850;DHT22;2951;47.712;9.400;2022-12-05T18:13:13;3.60;99.90
5850;DHT22;2951;47.712;9.400;2022-12-05T18:15:40;3.60;99.90
5850;DHT22;2951;47.712;9.400;2022-12-05T18:18:12;3.50;99.90
5850;DHT22;2951;47.712;9.400;2022-12-05T18:20:39;3.50;99.90
5850;DHT22;2951;47.712;9.400;2022-12-05T18:23:06;3.50;99.90
5850;DHT22;2951;47.712;9.400;2022-12-05T18:25:32;3.50;99.90
5850;DHT22;2951;47.712;9.400;2022-12-05T18:27:59;3.50;99.90
5850;DHT22;2951;47.712;9.400;2022-12-05T18:30:26;3.50;99.90
5850;DHT22;2951;47.712;9.400;2022-12-05T18:32:53;3.60;99.90
5850;DHT22;2951;47.712;9.400;2022-12-05T18:35:19;3.60;99.90
5850;DHT22;2951;47.712;9.400;2022-12-05T18:38:08;3.60;99.90
5850;DHT22;2951;47.712;9.400;2022-12-05T18:40:35;3.60;99.90
5850;DHT22;2951;47.712;9.400;2022-12-05T18:43:02;3.70;99.90
5850;DHT22;2951;47.712;9.400;2022-12-05T18:45:29;3.70;99.90
5850;DHT22;2951;47.712;9.400;2022-12-05T18:47:55;3.60;99.90
5850;DHT22;2951;47.712;9.400;2022-12-05T18:50:35;3.60;99.90
5850;DHT22;2951;47.712;9.400;2022-12-05T18:53:01;3.70;99.90
5850;DHT22;2951;47.712;9.400;2022-12-05T18:55:29;3.80;99.90
5850;DHT22;2951;47.712;9.400;2022-12-05T18:58:15;3.70;99.90
5850;DHT22;2951;47.712;9.400;2022-12-05T19:00:42;3.80;99.90
5850;DHT22;2951;47.712;9.400;2022-12-05T19:03:08;3.80;99.90
5850;DHT22;2951;47.712;9.400;2022-12-05T19:05:35;3.80;99.90
5850;DHT22;2951;47.712;9.400;2022-12-05T19:08:02;3.90;99.90
5850;DHT22;2951;47.712;9.400;2022-12-05T19:10:29;3.90;99.90
5850;DHT22;2951;47.712;9.400;2022-12-05T19:12:56;3.90;99.90
5850;DHT22;2951;47.712;9.400;2022-12-05T19:15:23;3.90;99.90
5850;DHT22;2951;47.712;9.400;2022-12-05T19:17:50;4.00;99.90
5850;DHT22;2951;47.712;9.400;2022-12-05T19:20:16;4.00;99.90
5850;DHT22;2951;47.712;9.400;2022-12-05T19:22:43;4.10;99.90
5850;DHT22;2951;47.712;9.400;2022-12-05T19:25:09;4.00;99.90
5850;DHT22;2951;47.712;9.400;2022-12-05T19:27:36;4.00;99.90